Search for airport 
image banner adimage banner adimage banner ad
image banner ad

KBRL - Southeast Iowa Rgnl

Located in Burlington, United States

ICAO - BRL, IATA - BRL

Data provided by Airmate  

General information

Coordinates: N40°46'60" W91°7'32"
Elevation is 698 feet MSL.
Magnetic variation is 01° East
View others Airports in Iowa

Operational data

Special qualification required
Current time UTC:
Current local time:
Weather
METAR: KBRL 150953Z AUTO 00000KT 10SM CLR 16/14 A3006 RMK AO2 SLP174 T01610139
TAF: KBRL 150530Z 1506/1606 01004KT P6SM SKC
View NOTAMs / SUP AIP / TFR affecting this airport [VIEW]
Communications frequencies: [VIEW]

Runways:

RWY identifierQFULength (ft)Width (ft)SurfaceLDA (ft)
12120°5351100OTHER5350
30300°5351100OTHER4850
18180°6701150ASPH6102
36360°6701150ASPH6102

Airport contact information

Address: Burlington United States

Other aviation service providers

Flight schools

Jet Air, Inc

Jet Air, Inc
info@jetairinc.com+1(319)237-8500

Satellite view of KBRL